Storm Events Database

Event Details

Event Thunderstorm Wind
Magnitude 52 kts.
State SOUTH DAKOTA
County/Area AURORA
WFO FSD
Begin Date 06/10/2010 23:30:00 CST-6
Begin Range 1
Begin Azimuth NW
Begin Location STICKNEY
Begin Lat/Lon 43.59/-98.44
End Date 06/10/2010 23:30:00 CST-6
Deaths Direct/Indirect 0/0 (fatality details below, when available...)
Injuries Direct/Indirect 0/0
Property Damage 0.00K
Crop Damage 0.00K
Episode Narrative Thunderstorms produced damaging winds over a large part of southeast South Dakota beginning just before midnight on June 10th, and continuing well into the predawn hours of June 11th. The storms also produced very heavy rain, which caused flash flooding at several locations.
Event Narrative Thunderstorm winds caused tree damage, including numerous branches blown down.


All events for this episode:

Location County/Zone St. Date Time T.Z. Type Mag Dth Inj PrD CrD
Totals: 0 0 870.00K 0.00K
WHITE LAKE AURORA CO. SD 06/10/2010 23:05 CST-6 Thunderstorm Wind 61 kts. EG 0 0 40.00K 0.00K
STICKNEY AURORA CO. SD 06/10/2010 23:30 CST-6 Thunderstorm Wind 52 kts. EG 0 0 0.00K 0.00K
ETHAN DAVISON CO. SD 06/11/2010 00:05 CST-6 Thunderstorm Wind 52 kts. EG 0 0 5.00K 0.00K
MILLTOWN HUTCHINSON CO. SD 06/11/2010 00:15 CST-6 Thunderstorm Wind 61 kts. EG 0 0 0.00K 0.00K
WOONSOCKET SANBORN CO. SD 06/11/2010 00:30 CST-6 Flash Flood 0 0 0.00K 0.00K
STANLEY CORNER MCCOOK CO. SD 06/11/2010 00:45 CST-6 Thunderstorm Wind 61 kts. EG 0 0 0.00K 0.00K
YANKTON YANKTON CO. SD 06/11/2010 01:00 CST-6 Thunderstorm Wind 58 kts. MG 0 0 0.00K 0.00K
SALEM MCCOOK CO. SD 06/11/2010 01:00 CST-6 Thunderstorm Wind 56 kts. EG 0 0 0.00K 0.00K
MISSION HILL YANKTON CO. SD 06/11/2010 01:05 CST-6 Thunderstorm Wind 65 kts. EG 0 0 100.00K 0.00K
WAKONDA CLAY CO. SD 06/11/2010 01:13 CST-6 Thunderstorm Wind 61 kts. EG 0 0 0.00K 0.00K
DALESBURG CLAY CO. SD 06/11/2010 01:17 CST-6 Thunderstorm Wind 78 kts. EG 0 0 25.00K 0.00K
WAKONDA CLAY CO. SD 06/11/2010 01:20 CST-6 Thunderstorm Wind 61 kts. EG 0 0 20.00K 0.00K
VERMILLION CLAY CO. SD 06/11/2010 01:20 CST-6 Thunderstorm Wind 61 kts. EG 0 0 5.00K 0.00K
VERMILLION CLAY CO. SD 06/11/2010 01:20 CST-6 Thunderstorm Wind 61 kts. EG 0 0 15.00K 0.00K
VERMILLION CLAY CO. SD 06/11/2010 01:23 CST-6 Thunderstorm Wind 61 kts. EG 0 0 0.00K 0.00K
FRANKLIN LAKE CO. SD 06/11/2010 01:24 CST-6 Thunderstorm Wind 61 kts. EG 0 0 0.00K 0.00K
GREENFELD CLAY CO. SD 06/11/2010 01:28 CST-6 Thunderstorm Wind 78 kts. EG 0 0 10.00K 0.00K
(MHE)MITCHELL ARPT DAVISON CO. SD 06/11/2010 01:30 CST-6 Flash Flood 0 0 75.00K 0.00K
MADISON MUNI ARPT LAKE CO. SD 06/11/2010 01:35 CST-6 Thunderstorm Wind 56 kts. EG 0 0 0.00K 0.00K
MADISON MUNI ARPT LAKE CO. SD 06/11/2010 01:40 CST-6 Thunderstorm Wind 61 kts. EG 0 0 10.00K 0.00K
HUDSON LINCOLN CO. SD 06/11/2010 01:40 CST-6 Thunderstorm Wind 61 kts. EG 0 0 15.00K 0.00K
ELLIS MINNEHAHA CO. SD 06/11/2010 01:42 CST-6 Thunderstorm Wind 87 kts. EG 0 0 500.00K 0.00K
MC COOK LAKE UNION CO. SD 06/11/2010 01:45 CST-6 Thunderstorm Wind 80 kts. MG 0 0 20.00K 0.00K
SALEM MCCOOK CO. SD 06/11/2010 01:47 CST-6 Flash Flood 0 0 0.00K 0.00K
VERMILLION CLAY CO. SD 06/11/2010 01:50 CST-6 Flash Flood 0 0 0.00K 0.00K
CHESTER LAKE CO. SD 06/11/2010 01:50 CST-6 Thunderstorm Wind 52 kts. EG 0 0 0.00K 0.00K
BERESFORD LINCOLN CO. SD 06/11/2010 01:50 CST-6 Thunderstorm Wind 61 kts. EG 0 0 5.00K 0.00K
BERESFORD LINCOLN CO. SD 06/11/2010 01:51 CST-6 Flash Flood 0 0 0.00K 0.00K
BERESFORD LINCOLN CO. SD 06/11/2010 01:51 CST-6 Thunderstorm Wind 61 kts. EG 0 0 0.00K 0.00K
ELLIS MINNEHAHA CO. SD 06/11/2010 01:55 CST-6 Flash Flood 0 0 0.00K 0.00K
EGAN MOODY CO. SD 06/11/2010 02:05 CST-6 Thunderstorm Wind 61 kts. EG 0 0 0.00K 0.00K
SOUTH SIOUX FALLS MINNEHAHA CO. SD 06/11/2010 02:07 CST-6 Thunderstorm Wind 65 kts. EG 0 0 5.00K 0.00K
MADISON LAKE CO. SD 06/11/2010 02:20 CST-6 Flash Flood 0 0 0.00K 0.00K
WHITE BROOKINGS CO. SD 06/11/2010 02:50 CST-6 Flash Flood 0 0 20.00K 0.00K
Totals: 0 0 870.00K 0.00K